Hlavní strana
METAR-TAF:

METAR-TAF

Letiště :

Ho Či Minovo Město, Vietnam

Letiště Tân Sơn Nhất

zeměpisná šířka: 10-49N, zeměpisná délka: 106-40E, výška: 19 m

Aktuální stav počasí

Zpráva byla vytvořena před 32 minutami, v 16:00 UTC
Jižní vítr 6 kt
Teplota 29°C
Vlhkost vzduchu 84%
Tlak 1009 hPa
Viditelnost 10 km a více
Skoro jasno ve výšce 1700 ft
Polojasno ve výšce 5000 ft

METAR: VVTS 251600Z 18006KT 9999 FEW017 SCT050 29/26 Q1009 NOSIG

Čas: 23:32 (16:32 UTC)

Předpověď počasí

Zpráva byla vytvořena před 5 hodinami a 32 minutami, v 11:00 UTC
Předpověď platná od 25 v 12 UTC do 26 v 18 UTC
Jižní vítr 8 kt
Viditelnost 10 km a více
Polojasno ve výšce 1500 ft
Polojasno ve výšce 4000 ft
Dočasný
od 26 v 07 UTC do 26 v 12 UTC
Oblačno až skoro zataženo ve výšce 1500 ft
Skoro jasno ve výšce 1700 ft, Cumulonimbus.
bouřka

TAF: VVTS 251100Z 2512/2618 17008KT 9999 SCT015 SCT040 TEMPO 2607/2612 TS BKN015 FEW017CB

Stav a předpovědi počasí z více než 4 000 letišť (zprávy METAR a TAF).

Červené a žluté tečky na mapě představují dostupné meteorologické stanice.

Když kurzor umístíte na tečku, zobrazí se název stanice.

Pak kliknutím zobrazíte stav a předpověď počasí.

Chcete-li změnit mapu, kliknutím na zelené tlačítko se znaménkem +mapu přiblížíte, kliknutím na zelené tlačítko se znaménkem – mapu oddálíte a kliknutím na zelené šipky přejdete na sousední mapy.


METAR-TAF: